sensor_id;sensor_type;location;lat;lon;timestamp;temperature;humidity
19968;DHT22;10145;49.152;9.282;2023-04-01T00:00:32;9.20;99.90
19968;DHT22;10145;49.152;9.282;2023-04-01T00:02:58;9.20;99.90
19968;DHT22;10145;49.152;9.282;2023-04-01T00:05:23;9.20;99.90
19968;DHT22;10145;49.152;9.282;2023-04-01T00:07:52;9.20;99.90
19968;DHT22;10145;49.152;9.282;2023-04-01T00:10:17;9.20;99.90
19968;DHT22;10145;49.152;9.282;2023-04-01T00:12:43;9.20;99.90
19968;DHT22;10145;49.152;9.282;2023-04-01T00:15:10;9.20;99.90
19968;DHT22;10145;49.152;9.282;2023-04-01T00:17:36;9.10;99.90
19968;DHT22;10145;49.152;9.282;2023-04-01T00:20:03;9.10;99.90
19968;DHT22;10145;49.152;9.282;2023-04-01T00:22:29;9.10;99.90
19968;DHT22;10145;49.152;9.282;2023-04-01T00:24:54;9.20;99.90
19968;DHT22;10145;49.152;9.282;2023-04-01T00:27:20;9.10;99.90
19968;DHT22;10145;49.152;9.282;2023-04-01T00:29:46;9.10;99.90
19968;DHT22;10145;49.152;9.282;2023-04-01T00:32:13;9.10;99.90
19968;DHT22;10145;49.152;9.282;2023-04-01T00:34:39;9.10;99.90
19968;DHT22;10145;49.152;9.282;2023-04-01T00:37:05;9.20;99.90
19968;DHT22;10145;49.152;9.282;2023-04-01T00:39:31;9.10;99.90
19968;DHT22;10145;49.152;9.282;2023-04-01T00:41:58;9.20;99.90
19968;DHT22;10145;49.152;9.282;2023-04-01T00:44:27;9.30;99.90
19968;DHT22;10145;49.152;9.282;2023-04-01T00:46:52;9.30;99.90
19968;DHT22;10145;49.152;9.282;2023-04-01T00:49:20;9.40;99.90
19968;DHT22;10145;49.152;9.282;2023-04-01T00:51:49;9.50;99.90
19968;DHT22;10145;49.152;9.282;2023-04-01T00:54:17;9.50;99.90
19968;DHT22;10145;49.152;9.282;2023-04-01T00:56:56;9.40;99.90
19968;DHT22;10145;49.152;9.282;2023-04-01T00:59:40;9.50;99.90
19968;DHT22;10145;49.152;9.282;2023-04-01T01:02:08;9.50;99.90
19968;DHT22;10145;49.152;9.282;2023-04-01T01:04:35;9.40;99.90
19968;DHT22;10145;49.152;9.282;2023-04-01T01:12:20;9.50;99.90
19968;DHT22;10145;49.152;9.282;2023-04-01T01:15:05;9.50;99.90
19968;DHT22;10145;49.152;9.282;2023-04-01T01:17:44;9.60;99.90
19968;DHT22;10145;49.152;9.282;2023-04-01T01:31:20;9.50;99.90
19968;DHT22;10145;49.152;9.282;2023-04-01T01:33:50;9.60;99.90
19968;DHT22;10145;49.152;9.282;2023-04-01T01:36:19;9.60;99.90
19968;DHT22;10145;49.152;9.282;2023-04-01T01:38:48;9.70;99.90
19968;DHT22;10145;49.152;9.282;2023-04-01T01:41:16;9.70;99.90
19968;DHT22;10145;49.152;9.282;2023-04-01T01:43:46;9.70;99.90
19968;DHT22;10145;49.152;9.282;2023-04-01T01:46:17;9.60;99.90
19968;DHT22;10145;49.152;9.282;2023-04-01T01:48:45;9.60;99.90
19968;DHT22;10145;49.152;9.282;2023-04-01T01:51:12;9.60;99.90
19968;DHT22;10145;49.152;9.282;2023-04-01T01:53:38;9.50;99.90
19968;DHT22;10145;49.152;9.282;2023-04-01T01:56:04;9.50;99.90
19968;DHT22;10145;49.152;9.282;2023-04-01T01:58:36;9.60;99.90
19968;DHT22;10145;49.152;9.282;2023-04-01T02:01:08;9.60;99.90
19968;DHT22;10145;49.152;9.282;2023-04-01T02:03:37;9.60;99.90
19968;DHT22;10145;49.152;9.282;2023-04-01T02:06:07;9.60;99.90
19968;DHT22;10145;49.152;9.282;2023-04-01T02:11:10;9.70;99.90
19968;DHT22;10145;49.152;9.282;2023-04-01T02:13:58;9.70;99.90
19968;DHT22;10145;49.152;9.282;2023-04-01T02:16:33;9.70;99.90
19968;DHT22;10145;49.152;9.282;2023-04-01T02:19:01;9.60;99.90
19968;DHT22;10145;49.152;9.282;2023-04-01T02:21:32;9.70;99.90
19968;DHT22;10145;49.152;9.282;2023-04-01T02:24:00;9.70;99.90
19968;DHT22;10145;49.152;9.282;2023-04-01T02:26:27;9.70;99.90
19968;DHT22;10145;49.152;9.282;2023-04-01T02:28:54;9.60;99.90
19968;DHT22;10145;49.152;9.282;2023-04-01T02:31:21;9.60;99.90
19968;DHT22;10145;49.152;9.282;2023-04-01T02:33:47;9.60;99.90
19968;DHT22;10145;49.152;9.282;2023-04-01T02:36:14;9.60;99.90
19968;DHT22;10145;49.152;9.282;2023-04-01T02:38:42;9.60;99.90
19968;DHT22;10145;49.152;9.282;2023-04-01T02:41:09;9.50;99.90
19968;DHT22;10145;49.152;9.282;2023-04-01T02:43:35;9.50;99.90
19968;DHT22;10145;49.152;9.282;2023-04-01T02:46:01;9.50;99.90
19968;DHT22;10145;49.152;9.282;2023-04-01T02:48:27;9.60;99.90
19968;DHT22;10145;49.152;9.282;2023-04-01T02:50:53;9.60;99.90
19968;DHT22;10145;49.152;9.282;2023-04-01T02:53:19;9.80;99.90
19968;DHT22;10145;49.152;9.282;2023-04-01T02:55:45;9.70;99.90
19968;DHT22;10145;49.152;9.282;2023-04-01T02:58:10;9.80;99.90
19968;DHT22;10145;49.152;9.282;2023-04-01T03:00:37;9.80;99.90
19968;DHT22;10145;49.152;9.282;2023-04-01T03:03:03;9.70;99.90
19968;DHT22;10145;49.152;9.282;2023-04-01T03:05:28;9.80;99.90
19968;DHT22;10145;49.152;9.282;2023-04-01T03:07:55;9.80;99.90
19968;DHT22;10145;49.152;9.282;2023-04-01T03:10:20;9.80;99.90
19968;DHT22;10145;49.152;9.282;2023-04-01T03:12:46;9.70;99.90
19968;DHT22;10145;49.152;9.282;2023-04-01T03:15:13;9.70;99.90
19968;DHT22;10145;49.152;9.282;2023-04-01T03:17:40;9.70;99.90
19968;DHT22;10145;49.152;9.282;2023-04-01T03:20:06;9.70;99.90
19968;DHT22;10145;49.152;9.282;2023-04-01T03:22:34;9.80;99.90
19968;DHT22;10145;49.152;9.282;2023-04-01T03:24:59;9.70;99.90
19968;DHT22;10145;49.152;9.282;2023-04-01T03:27:25;9.70;99.90
19968;DHT22;10145;49.152;9.282;2023-04-01T03:29:50;9.70;99.90
19968;DHT22;10145;49.152;9.282;2023-04-01T03:32:16;9.70;99.90
19968;DHT22;10145;49.152;9.282;2023-04-01T03:34:42;9.70;99.90
19968;DHT22;10145;49.152;9.282;2023-04-01T03:37:07;9.60;99.90
19968;DHT22;10145;49.152;9.282;2023-04-01T03:39:33;9.60;99.90
19968;DHT22;10145;49.152;9.282;2023-04-01T03:41:59;9.70;99.90
19968;DHT22;10145;49.152;9.282;2023-04-01T03:44:24;9.60;99.90
19968;DHT22;10145;49.152;9.282;2023-04-01T03:46:50;9.60;99.90
19968;DHT22;10145;49.152;9.282;2023-04-01T03:49:15;9.70;99.90
19968;DHT22;10145;49.152;9.282;2023-04-01T03:51:42;9.70;99.90
19968;DHT22;10145;49.152;9.282;2023-04-01T03:54:09;9.70;99.90
19968;DHT22;10145;49.152;9.282;2023-04-01T03:56:35;9.80;99.90
19968;DHT22;10145;49.152;9.282;2023-04-01T03:59:05;9.80;99.90
19968;DHT22;10145;49.152;9.282;2023-04-01T04:01:32;9.80;99.90
19968;DHT22;10145;49.152;9.282;2023-04-01T04:03:58;9.90;99.90
19968;DHT22;10145;49.152;9.282;2023-04-01T04:06:25;9.90;99.90
19968;DHT22;10145;49.152;9.282;2023-04-01T04:08:50;9.90;99.90
19968;DHT22;10145;49.152;9.282;2023-04-01T04:11:16;9.80;99.90
19968;DHT22;10145;49.152;9.282;2023-04-01T04:13:43;9.80;99.90
19968;DHT22;10145;49.152;9.282;2023-04-01T04:16:09;9.80;99.90
19968;DHT22;10145;49.152;9.282;2023-04-01T04:18:36;9.70;99.90
19968;DHT22;10145;49.152;9.282;2023-04-01T04:21:02;9.70;99.90
19968;DHT22;10145;49.152;9.282;2023-04-01T04:23:28;9.70;99.90
19968;DHT22;10145;49.152;9.282;2023-04-01T04:26:08;9.70;99.90
19968;DHT22;10145;49.152;9.282;2023-04-01T04:28:34;9.70;99.90
19968;DHT22;10145;49.152;9.282;2023-04-01T04:31:01;9.70;99.90
19968;DHT22;10145;49.152;9.282;2023-04-01T04:33:26;9.60;99.90
19968;DHT22;10145;49.152;9.282;2023-04-01T04:35:55;9.60;99.90
19968;DHT22;10145;49.152;9.282;2023-04-01T04:38:21;9.60;99.90
19968;DHT22;10145;49.152;9.282;2023-04-01T04:40:47;9.70;99.90
19968;DHT22;10145;49.152;9.282;2023-04-01T04:43:14;9.70;99.90
19968;DHT22;10145;49.152;9.282;2023-04-01T04:45:41;9.70;99.90
19968;DHT22;10145;49.152;9.282;2023-04-01T04:48:11;9.70;99.90
19968;DHT22;10145;49.152;9.282;2023-04-01T04:50:42;9.70;99.90
19968;DHT22;10145;49.152;9.282;2023-04-01T04:53:10;9.60;99.90
19968;DHT22;10145;49.152;9.282;2023-04-01T04:55:35;9.70;99.90
19968;DHT22;10145;49.152;9.282;2023-04-01T04:58:01;9.60;99.90
19968;DHT22;10145;49.152;9.282;2023-04-01T05:00:27;9.60;99.90
19968;DHT22;10145;49.152;9.282;2023-04-01T05:02:52;9.60;99.90
19968;DHT22;10145;49.152;9.282;2023-04-01T05:05:18;9.60;99.90
19968;DHT22;10145;49.152;9.282;2023-04-01T05:07:44;9.70;99.90
19968;DHT22;10145;49.152;9.282;2023-04-01T05:10:09;9.60;99.90
19968;DHT22;10145;49.152;9.282;2023-04-01T05:12:35;9.60;99.90
19968;DHT22;10145;49.152;9.282;2023-04-01T05:15:07;9.70;99.90
19968;DHT22;10145;49.152;9.282;2023-04-01T05:17:33;9.70;99.90
19968;DHT22;10145;49.152;9.282;2023-04-01T05:19:59;9.70;99.90
19968;DHT22;10145;49.152;9.282;2023-04-01T05:22:24;9.70;99.90
19968;DHT22;10145;49.152;9.282;2023-04-01T05:24:50;9.60;99.90
19968;DHT22;10145;49.152;9.282;2023-04-01T05:27:16;9.60;99.90
19968;DHT22;10145;49.152;9.282;2023-04-01T05:29:41;9.70;99.90
19968;DHT22;10145;49.152;9.282;2023-04-01T05:32:07;9.80;99.90
19968;DHT22;10145;49.152;9.282;2023-04-01T05:34:33;9.80;99.90
19968;DHT22;10145;49.152;9.282;2023-04-01T05:36:58;9.80;99.90
19968;DHT22;10145;49.152;9.282;2023-04-01T05:39:24;9.80;99.90
19968;DHT22;10145;49.152;9.282;2023-04-01T05:41:49;9.90;99.90
19968;DHT22;10145;49.152;9.282;2023-04-01T05:44:15;9.90;99.90
19968;DHT22;10145;49.152;9.282;2023-04-01T05:46:41;10.00;99.90
19968;DHT22;10145;49.152;9.282;2023-04-01T05:49:07;10.00;99.90
19968;DHT22;10145;49.152;9.282;2023-04-01T05:51:32;10.00;99.90
19968;DHT22;10145;49.152;9.282;2023-04-01T05:53:58;10.00;99.90
19968;DHT22;10145;49.152;9.282;2023-04-01T05:56:23;10.00;99.90
19968;DHT22;10145;49.152;9.282;2023-04-01T05:58:51;10.00;99.90
19968;DHT22;10145;49.152;9.282;2023-04-01T06:01:17;9.90;99.90
19968;DHT22;10145;49.152;9.282;2023-04-01T06:03:44;9.80;99.90
19968;DHT22;10145;49.152;9.282;2023-04-01T06:06:14;9.80;99.90
19968;DHT22;10145;49.152;9.282;2023-04-01T06:08:41;9.80;99.90
19968;DHT22;10145;49.152;9.282;2023-04-01T06:14:11;9.70;99.90
19968;DHT22;10145;49.152;9.282;2023-04-01T06:22:27;9.60;99.90
19968;DHT22;10145;49.152;9.282;2023-04-01T06:25:10;9.60;99.90
19968;DHT22;10145;49.152;9.282;2023-04-01T06:38:53;9.60;99.90
19968;DHT22;10145;49.152;9.282;2023-04-01T06:50:11;9.90;99.90
19968;DHT22;10145;49.152;9.282;2023-04-01T06:55:32;10.10;99.90
19968;DHT22;10145;49.152;9.282;2023-04-01T06:58:04;10.10;99.90
19968;DHT22;10145;49.152;9.282;2023-04-01T07:00:40;10.10;99.90
19968;DHT22;10145;49.152;9.282;2023-04-01T07:06:08;10.20;99.90
19968;DHT22;10145;49.152;9.282;2023-04-01T07:08:37;10.20;99.90
19968;DHT22;10145;49.152;9.282;2023-04-01T07:11:25;10.20;99.90
19968;DHT22;10145;49.152;9.282;2023-04-01T07:13:53;10.30;99.90
19968;DHT22;10145;49.152;9.282;2023-04-01T07:16:27;10.20;99.90
19968;DHT22;10145;49.152;9.282;2023-04-01T07:19:29;10.40;99.90
19968;DHT22;10145;49.152;9.282;2023-04-01T07:22:03;10.40;99.90
19968;DHT22;10145;49.152;9.282;2023-04-01T07:24:34;10.40;99.90
19968;DHT22;10145;49.152;9.282;2023-04-01T07:27:02;10.50;99.90
19968;DHT22;10145;49.152;9.282;2023-04-01T07:29:28;10.50;99.90
19968;DHT22;10145;49.152;9.282;2023-04-01T07:48:41;10.60;99.90
19968;DHT22;10145;49.152;9.282;2023-04-01T07:51:38;10.50;99.90
19968;DHT22;10145;49.152;9.282;2023-04-01T07:54:38;10.50;99.90
19968;DHT22;10145;49.152;9.282;2023-04-01T07:57:20;10.50;99.90
19968;DHT22;10145;49.152;9.282;2023-04-01T08:05:26;10.40;99.90
19968;DHT22;10145;49.152;9.282;2023-04-01T08:08:18;10.40;99.90
19968;DHT22;10145;49.152;9.282;2023-04-01T08:16:46;10.20;99.90
19968;DHT22;10145;49.152;9.282;2023-04-01T08:19:44;10.10;99.90
19968;DHT22;10145;49.152;9.282;2023-04-01T08:22:36;10.20;99.90
19968;DHT22;10145;49.152;9.282;2023-04-01T08:25:05;10.10;99.90
19968;DHT22;10145;49.152;9.282;2023-04-01T08:27:43;10.10;99.90
19968;DHT22;10145;49.152;9.282;2023-04-01T08:30:26;9.90;99.90
19968;DHT22;10145;49.152;9.282;2023-04-01T08:32:58;9.50;99.90
19968;DHT22;10145;49.152;9.282;2023-04-01T08:35:31;9.20;99.90
19968;DHT22;10145;49.152;9.282;2023-04-01T08:49:17;9.30;99.90
19968;DHT22;10145;49.152;9.282;2023-04-01T08:57:25;9.20;99.90
19968;DHT22;10145;49.152;9.282;2023-04-01T09:00:26;9.10;99.90
19968;DHT22;10145;49.152;9.282;2023-04-01T09:11:13;9.40;99.90
19968;DHT22;10145;49.152;9.282;2023-04-01T09:19:37;9.80;99.90
19968;DHT22;10145;49.152;9.282;2023-04-01T09:22:25;9.80;99.90
19968;DHT22;10145;49.152;9.282;2023-04-01T09:25:15;10.00;99.90
19968;DHT22;10145;49.152;9.282;2023-04-01T09:28:08;10.00;99.90
19968;DHT22;10145;49.152;9.282;2023-04-01T09:39:12;10.00;99.90
19968;DHT22;10145;49.152;9.282;2023-04-01T09:42:15;9.90;99.90
19968;DHT22;10145;49.152;9.282;2023-04-01T09:44:58;9.80;99.90
19968;DHT22;10145;49.152;9.282;2023-04-01T09:53:36;9.80;99.90
19968;DHT22;10145;49.152;9.282;2023-04-01T09:59:18;9.80;99.90
19968;DHT22;10145;49.152;9.282;2023-04-01T10:16:19;9.70;99.90
19968;DHT22;10145;49.152;9.282;2023-04-01T10:19:16;9.70;99.90
19968;DHT22;10145;49.152;9.282;2023-04-01T10:21:56;9.80;99.90
19968;DHT22;10145;49.152;9.282;2023-04-01T10:27:53;9.80;99.90
19968;DHT22;10145;49.152;9.282;2023-04-01T10:35:59;9.80;99.90
19968;DHT22;10145;49.152;9.282;2023-04-01T10:50:49;9.60;99.90
19968;DHT22;10145;49.152;9.282;2023-04-01T10:56:55;9.50;99.90
19968;DHT22;10145;49.152;9.282;2023-04-01T10:59:32;9.50;99.90
19968;DHT22;10145;49.152;9.282;2023-04-01T11:13:39;9.50;99.90
19968;DHT22;10145;49.152;9.282;2023-04-01T11:21:59;9.60;99.90
19968;DHT22;10145;49.152;9.282;2023-04-01T11:25:04;9.50;99.90
19968;DHT22;10145;49.152;9.282;2023-04-01T11:33:06;9.40;99.90
19968;DHT22;10145;49.152;9.282;2023-04-01T11:35:46;9.40;99.90
19968;DHT22;10145;49.152;9.282;2023-04-01T11:41:13;9.50;99.90
19968;DHT22;10145;49.152;9.282;2023-04-01T11:57:51;9.50;99.90
19968;DHT22;10145;49.152;9.282;2023-04-01T12:00:24;9.50;99.90
19968;DHT22;10145;49.152;9.282;2023-04-01T12:08:44;9.50;99.90
19968;DHT22;10145;49.152;9.282;2023-04-01T12:11:20;9.60;99.90
19968;DHT22;10145;49.152;9.282;2023-04-01T12:14:00;9.60;99.90
19968;DHT22;10145;49.152;9.282;2023-04-01T12:16:47;9.60;99.90
19968;DHT22;10145;49.152;9.282;2023-04-01T12:19:42;9.60;99.90
19968;DHT22;10145;49.152;9.282;2023-04-01T12:24:46;9.70;99.90
19968;DHT22;10145;49.152;9.282;2023-04-01T12:30:05;9.80;99.90
19968;DHT22;10145;49.152;9.282;2023-04-01T12:42:11;10.20;99.90
19968;DHT22;10145;49.152;9.282;2023-04-01T12:55:49;10.10;99.90
19968;DHT22;10145;49.152;9.282;2023-04-01T12:58:43;10.00;99.90
19968;DHT22;10145;49.152;9.282;2023-04-01T13:04:33;10.00;99.90
19968;DHT22;10145;49.152;9.282;2023-04-01T13:07:28;10.20;99.90
19968;DHT22;10145;49.152;9.282;2023-04-01T13:10:47;10.30;99.90
19968;DHT22;10145;49.152;9.282;2023-04-01T13:13:45;10.40;99.90
19968;DHT22;10145;49.152;9.282;2023-04-01T13:16:21;10.50;99.90
19968;DHT22;10145;49.152;9.282;2023-04-01T13:21:17;10.60;99.90
19968;DHT22;10145;49.152;9.282;2023-04-01T13:26:38;10.40;99.90
19968;DHT22;10145;49.152;9.282;2023-04-01T13:32:22;10.50;99.90
19968;DHT22;10145;49.152;9.282;2023-04-01T13:35:20;10.50;99.90
19968;DHT22;10145;49.152;9.282;2023-04-01T13:38:16;10.50;99.90
19968;DHT22;10145;49.152;9.282;2023-04-01T13:41:06;10.40;99.90
19968;DHT22;10145;49.152;9.282;2023-04-01T13:43:39;10.40;99.90
19968;DHT22;10145;49.152;9.282;2023-04-01T13:46:22;10.40;99.90
19968;DHT22;10145;49.152;9.282;2023-04-01T13:52:00;10.40;99.90
19968;DHT22;10145;49.152;9.282;2023-04-01T13:54:53;10.40;99.90
19968;DHT22;10145;49.152;9.282;2023-04-01T14:00:42;10.60;99.90
19968;DHT22;10145;49.152;9.282;2023-04-01T14:03:50;10.60;99.90
19968;DHT22;10145;49.152;9.282;2023-04-01T14:17:17;10.70;99.90
19968;DHT22;10145;49.152;9.282;2023-04-01T14:22:38;10.70;99.90
19968;DHT22;10145;49.152;9.282;2023-04-01T14:33:53;10.50;99.90
19968;DHT22;10145;49.152;9.282;2023-04-01T14:48:13;10.50;99.90
19968;DHT22;10145;49.152;9.282;2023-04-01T14:50:44;10.60;99.90
19968;DHT22;10145;49.152;9.282;2023-04-01T14:55:55;10.70;99.90
19968;DHT22;10145;49.152;9.282;2023-04-01T14:58:24;10.70;99.90
19968;DHT22;10145;49.152;9.282;2023-04-01T15:03:46;10.70;99.90
19968;DHT22;10145;49.152;9.282;2023-04-01T15:06:38;10.80;99.90
19968;DHT22;10145;49.152;9.282;2023-04-01T15:14:46;10.70;99.90
19968;DHT22;10145;49.152;9.282;2023-04-01T15:20:44;10.70;99.90
19968;DHT22;10145;49.152;9.282;2023-04-01T15:32:02;10.80;99.90
19968;DHT22;10145;49.152;9.282;2023-04-01T15:34:52;10.80;99.90
19968;DHT22;10145;49.152;9.282;2023-04-01T15:40:15;10.80;99.90
19968;DHT22;10145;49.152;9.282;2023-04-01T15:43:19;10.90;99.90
19968;DHT22;10145;49.152;9.282;2023-04-01T15:49:28;11.00;99.90
19968;DHT22;10145;49.152;9.282;2023-04-01T15:52:05;11.10;99.90
19968;DHT22;10145;49.152;9.282;2023-04-01T16:00:02;11.00;99.90
19968;DHT22;10145;49.152;9.282;2023-04-01T16:11:54;10.90;99.90
19968;DHT22;10145;49.152;9.282;2023-04-01T16:14:54;10.90;99.90
19968;DHT22;10145;49.152;9.282;2023-04-01T16:17:30;10.90;99.90
19968;DHT22;10145;49.152;9.282;2023-04-01T16:20:02;10.90;99.90
19968;DHT22;10145;49.152;9.282;2023-04-01T16:22:40;11.00;99.90
19968;DHT22;10145;49.152;9.282;2023-04-01T16:28:19;11.00;99.90
19968;DHT22;10145;49.152;9.282;2023-04-01T16:41:42;11.00;99.90
19968;DHT22;10145;49.152;9.282;2023-04-01T16:44:19;11.00;99.90
19968;DHT22;10145;49.152;9.282;2023-04-01T16:46:57;11.00;99.90
19968;DHT22;10145;49.152;9.282;2023-04-01T16:49:42;10.90;99.90
19968;DHT22;10145;49.152;9.282;2023-04-01T16:54:42;10.90;99.90
19968;DHT22;10145;49.152;9.282;2023-04-01T16:59:58;10.90;99.90
19968;DHT22;10145;49.152;9.282;2023-04-01T17:02:43;10.90;99.90
19968;DHT22;10145;49.152;9.282;2023-04-01T17:05:13;10.90;99.90
19968;DHT22;10145;49.152;9.282;2023-04-01T17:08:07;11.00;99.90
19968;DHT22;10145;49.152;9.282;2023-04-01T17:10:39;10.90;99.90
19968;DHT22;10145;49.152;9.282;2023-04-01T17:16:06;10.90;99.90
19968;DHT22;10145;49.152;9.282;2023-04-01T17:21:49;10.90;99.90
19968;DHT22;10145;49.152;9.282;2023-04-01T17:30:16;10.90;99.90
19968;DHT22;10145;49.152;9.282;2023-04-01T17:38:34;10.70;99.90
19968;DHT22;10145;49.152;9.282;2023-04-01T17:49:49;10.40;99.90
19968;DHT22;10145;49.152;9.282;2023-04-01T17:52:31;10.40;99.90
19968;DHT22;10145;49.152;9.282;2023-04-01T17:57:56;10.30;99.90
19968;DHT22;10145;49.152;9.282;2023-04-01T18:00:47;10.20;99.90
19968;DHT22;10145;49.152;9.282;2023-04-01T18:09:22;10.20;99.90
19968;DHT22;10145;49.152;9.282;2023-04-01T18:11:59;10.20;99.90
19968;DHT22;10145;49.152;9.282;2023-04-01T18:22:36;10.10;99.90
19968;DHT22;10145;49.152;9.282;2023-04-01T18:25:16;10.10;99.90
19968;DHT22;10145;49.152;9.282;2023-04-01T18:27:45;9.90;99.90
19968;DHT22;10145;49.152;9.282;2023-04-01T18:30:20;9.70;99.90
19968;DHT22;10145;49.152;9.282;2023-04-01T18:35:19;9.60;99.90
19968;DHT22;10145;49.152;9.282;2023-04-01T18:38:04;9.70;99.90
19968;DHT22;10145;49.152;9.282;2023-04-01T18:40:40;9.60;99.90
19968;DHT22;10145;49.152;9.282;2023-04-01T18:46:25;9.60;99.90
19968;DHT22;10145;49.152;9.282;2023-04-01T18:49:12;9.50;99.90
19968;DHT22;10145;49.152;9.282;2023-04-01T18:51:59;9.40;99.90
19968;DHT22;10145;49.152;9.282;2023-04-01T18:54:33;9.60;99.90
19968;DHT22;10145;49.152;9.282;2023-04-01T18:57:16;9.40;99.90
19968;DHT22;10145;49.152;9.282;2023-04-01T18:59:50;9.50;99.90
19968;DHT22;10145;49.152;9.282;2023-04-01T19:02:37;9.50;99.90
19968;DHT22;10145;49.152;9.282;2023-04-01T19:05:18;9.50;99.90
19968;DHT22;10145;49.152;9.282;2023-04-01T19:07:53;9.50;99.90
19968;DHT22;10145;49.152;9.282;2023-04-01T19:10:26;9.50;99.90
19968;DHT22;10145;49.152;9.282;2023-04-01T19:15:40;9.30;99.90
19968;DHT22;10145;49.152;9.282;2023-04-01T19:21:14;9.30;99.90
19968;DHT22;10145;49.152;9.282;2023-04-01T19:32:19;9.20;99.90
19968;DHT22;10145;49.152;9.282;2023-04-01T19:37:47;9.30;99.90
19968;DHT22;10145;49.152;9.282;2023-04-01T19:51:43;9.30;99.90
19968;DHT22;10145;49.152;9.282;2023-04-01T20:00:21;9.50;99.90
19968;DHT22;10145;49.152;9.282;2023-04-01T20:08:32;9.50;99.90
19968;DHT22;10145;49.152;9.282;2023-04-01T20:11:12;9.50;99.90
19968;DHT22;10145;49.152;9.282;2023-04-01T20:14:00;9.60;99.90
19968;DHT22;10145;49.152;9.282;2023-04-01T20:16:48;9.60;99.90
19968;DHT22;10145;49.152;9.282;2023-04-01T20:19:25;9.60;99.90
19968;DHT22;10145;49.152;9.282;2023-04-01T20:21:59;9.60;99.90
19968;DHT22;10145;49.152;9.282;2023-04-01T20:24:44;9.60;99.90
19968;DHT22;10145;49.152;9.282;2023-04-01T20:35:06;9.50;99.90
19968;DHT22;10145;49.152;9.282;2023-04-01T20:40:35;9.50;99.90
19968;DHT22;10145;49.152;9.282;2023-04-01T20:46:13;9.60;99.90
19968;DHT22;10145;49.152;9.282;2023-04-01T20:48:48;9.50;99.90
19968;DHT22;10145;49.152;9.282;2023-04-01T20:51:25;9.50;99.90
19968;DHT22;10145;49.152;9.282;2023-04-01T20:59:28;9.60;99.90
19968;DHT22;10145;49.152;9.282;2023-04-01T21:02:13;9.60;99.90
19968;DHT22;10145;49.152;9.282;2023-04-01T21:07:49;9.60;99.90
19968;DHT22;10145;49.152;9.282;2023-04-01T21:18:53;9.50;99.90
19968;DHT22;10145;49.152;9.282;2023-04-01T21:24:30;9.50;99.90
19968;DHT22;10145;49.152;9.282;2023-04-01T21:29:58;9.50;99.90
19968;DHT22;10145;49.152;9.282;2023-04-01T21:38:27;9.50;99.90
19968;DHT22;10145;49.152;9.282;2023-04-01T21:43:49;9.50;99.90
19968;DHT22;10145;49.152;9.282;2023-04-01T21:55:44;9.50;99.90
19968;DHT22;10145;49.152;9.282;2023-04-01T21:58:07;9.50;99.90
19968;DHT22;10145;49.152;9.282;2023-04-01T22:00:48;9.40;99.90
19968;DHT22;10145;49.152;9.282;2023-04-01T22:03:35;9.40;99.90
19968;DHT22;10145;49.152;9.282;2023-04-01T22:06:15;9.50;99.90
19968;DHT22;10145;49.152;9.282;2023-04-01T22:08:56;9.50;99.90
19968;DHT22;10145;49.152;9.282;2023-04-01T22:14:39;9.40;99.90
19968;DHT22;10145;49.152;9.282;2023-04-01T22:17:16;9.50;99.90
19968;DHT22;10145;49.152;9.282;2023-04-01T22:19:55;9.60;99.90
19968;DHT22;10145;49.152;9.282;2023-04-01T22:25:11;9.50;99.90
19968;DHT22;10145;49.152;9.282;2023-04-01T22:30:42;9.50;99.90
19968;DHT22;10145;49.152;9.282;2023-04-01T22:35:52;9.40;99.90
19968;DHT22;10145;49.152;9.282;2023-04-01T22:39:04;9.40;99.90
19968;DHT22;10145;49.152;9.282;2023-04-01T22:41:56;9.30;99.90
19968;DHT22;10145;49.152;9.282;2023-04-01T22:45:00;9.40;99.90
19968;DHT22;10145;49.152;9.282;2023-04-01T22:47:55;9.40;99.90
19968;DHT22;10145;49.152;9.282;2023-04-01T22:56:34;9.30;99.90
19968;DHT22;10145;49.152;9.282;2023-04-01T22:59:06;9.30;99.90
19968;DHT22;10145;49.152;9.282;2023-04-01T23:01:40;9.20;99.90
19968;DHT22;10145;49.152;9.282;2023-04-01T23:04:11;9.20;99.90
19968;DHT22;10145;49.152;9.282;2023-04-01T23:06:46;9.20;99.90
19968;DHT22;10145;49.152;9.282;2023-04-01T23:09:25;9.20;99.90
19968;DHT22;10145;49.152;9.282;2023-04-01T23:12:05;9.20;99.90
19968;DHT22;10145;49.152;9.282;2023-04-01T23:14:46;9.20;99.90
19968;DHT22;10145;49.152;9.282;2023-04-01T23:17:37;9.20;99.90
19968;DHT22;10145;49.152;9.282;2023-04-01T23:30:58;9.20;99.90
19968;DHT22;10145;49.152;9.282;2023-04-01T23:33:30;9.20;99.90
19968;DHT22;10145;49.152;9.282;2023-04-01T23:36:16;9.20;99.90
19968;DHT22;10145;49.152;9.282;2023-04-01T23:38:47;9.20;99.90
19968;DHT22;10145;49.152;9.282;2023-04-01T23:41:28;9.20;99.90
19968;DHT22;10145;49.152;9.282;2023-04-01T23:44:03;9.20;99.90
19968;DHT22;10145;49.152;9.282;2023-04-01T23:46:30;9.20;99.90
19968;DHT22;10145;49.152;9.282;2023-04-01T23:48:57;9.20;99.90
19968;DHT22;10145;49.152;9.282;2023-04-01T23:51:26;9.20;99.90
19968;DHT22;10145;49.152;9.282;2023-04-01T23:54:13;9.20;99.90
19968;DHT22;10145;49.152;9.282;2023-04-01T23:56:44;9.20;99.90
19968;DHT22;10145;49.152;9.282;2023-04-01T23:59:16;9.20;99.90
